sensor_id;sensor_type;location;lat;lon;timestamp;P1;P2;P0
76049;PMS7003;64967;50.234;19.224;2023-07-28T00:00:50;2.00;1.33;1.00
76049;PMS7003;64967;50.234;19.224;2023-07-28T00:03:18;1.33;1.33;1.00
76049;PMS7003;64967;50.234;19.224;2023-07-28T00:06:03;1.67;1.33;1.00
76049;PMS7003;64967;50.234;19.224;2023-07-28T00:08:49;1.67;1.67;1.67
76049;PMS7003;64967;50.234;19.224;2023-07-28T00:11:34;1.67;1.67;1.67
76049;PMS7003;64967;50.234;19.224;2023-07-28T00:14:25;1.00;1.00;1.00
76049;PMS7003;64967;50.234;19.224;2023-07-28T00:17:10;1.00;1.00;1.00
76049;PMS7003;64967;50.234;19.224;2023-07-28T00:19:37;1.00;1.00;1.00
76049;PMS7003;64967;50.234;19.224;2023-07-28T00:22:04;3.00;3.00;2.00
76049;PMS7003;64967;50.234;19.224;2023-07-28T00:24:31;2.33;2.33;2.00
76049;PMS7003;64967;50.234;19.224;2023-07-28T00:26:58;2.00;1.00;1.00
76049;PMS7003;64967;50.234;19.224;2023-07-28T00:29:25;1.00;1.00;1.00
76049;PMS7003;64967;50.234;19.224;2023-07-28T00:31:52;2.67;2.67;2.67
76049;PMS7003;64967;50.234;19.224;2023-07-28T00:34:20;3.67;3.00;1.33
76049;PMS7003;64967;50.234;19.224;2023-07-28T00:36:47;3.00;3.00;2.00
76049;PMS7003;64967;50.234;19.224;2023-07-28T00:39:14;2.33;2.33;2.00
76049;PMS7003;64967;50.234;19.224;2023-07-28T00:41:41;2.00;1.67;1.67
76049;PMS7003;64967;50.234;19.224;2023-07-28T00:44:08;1.00;1.00;1.00
76049;PMS7003;64967;50.234;19.224;2023-07-28T00:46:35;2.33;2.00;1.00
76049;PMS7003;64967;50.234;19.224;2023-07-28T00:49:02;2.00;2.00;2.00
76049;PMS7003;64967;50.234;19.224;2023-07-28T00:51:31;2.00;1.00;1.00
76049;PMS7003;64967;50.234;19.224;2023-07-28T00:53:58;2.33;2.33;2.00
76049;PMS7003;64967;50.234;19.224;2023-07-28T00:56:28;2.67;2.67;2.00
76049;PMS7003;64967;50.234;19.224;2023-07-28T00:58:55;1.00;1.00;1.00
76049;PMS7003;64967;50.234;19.224;2023-07-28T01:01:22;2.00;2.00;1.00
76049;PMS7003;64967;50.234;19.224;2023-07-28T01:03:50;1.33;1.33;1.00
76049;PMS7003;64967;50.234;19.224;2023-07-28T01:09:19;3.00;2.00;2.00
76049;PMS7003;64967;50.234;19.224;2023-07-28T01:12:11;2.00;2.00;2.00
76049;PMS7003;64967;50.234;19.224;2023-07-28T01:14:57;1.33;1.33;1.00
76049;PMS7003;64967;50.234;19.224;2023-07-28T01:17:44;2.00;2.00;1.00
76049;PMS7003;64967;50.234;19.224;2023-07-28T01:20:39;2.00;2.00;1.67
76049;PMS7003;64967;50.234;19.224;2023-07-28T01:26:13;2.00;2.00;1.00
76049;PMS7003;64967;50.234;19.224;2023-07-28T01:28:43;2.00;1.67;1.00
76049;PMS7003;64967;50.234;19.224;2023-07-28T01:31:11;3.00;2.00;2.00
76049;PMS7003;64967;50.234;19.224;2023-07-28T01:33:38;2.67;2.67;1.67
76049;PMS7003;64967;50.234;19.224;2023-07-28T01:36:06;1.00;1.00;1.00
76049;PMS7003;64967;50.234;19.224;2023-07-28T01:38:33;2.00;2.00;2.00
76049;PMS7003;64967;50.234;19.224;2023-07-28T01:41:00;2.00;2.00;1.67
76049;PMS7003;64967;50.234;19.224;2023-07-28T01:43:27;3.33;2.67;2.33
76049;PMS7003;64967;50.234;19.224;2023-07-28T01:45:54;2.00;1.67;1.00
76049;PMS7003;64967;50.234;19.224;2023-07-28T01:48:21;2.67;2.67;2.00
76049;PMS7003;64967;50.234;19.224;2023-07-28T01:50:49;2.00;2.00;2.00
76049;PMS7003;64967;50.234;19.224;2023-07-28T01:53:16;2.00;2.00;1.00
76049;PMS7003;64967;50.234;19.224;2023-07-28T01:55:43;2.00;2.00;1.00
76049;PMS7003;64967;50.234;19.224;2023-07-28T01:58:10;2.00;2.00;1.00
76049;PMS7003;64967;50.234;19.224;2023-07-28T02:00:37;0.33;0.33;0.00
76049;PMS7003;64967;50.234;19.224;2023-07-28T02:03:04;0.00;0.00;0.00
76049;PMS7003;64967;50.234;19.224;2023-07-28T02:05:31;1.00;1.00;0.67
76049;PMS7003;64967;50.234;19.224;2023-07-28T02:07:59;0.00;0.00;0.00
76049;PMS7003;64967;50.234;19.224;2023-07-28T02:10:26;0.67;0.67;0.33
76049;PMS7003;64967;50.234;19.224;2023-07-28T02:12:55;0.33;0.00;0.00
76049;PMS7003;64967;50.234;19.224;2023-07-28T02:15:22;0.00;0.00;0.00
76049;PMS7003;64967;50.234;19.224;2023-07-28T02:17:49;0.00;0.00;0.00
76049;PMS7003;64967;50.234;19.224;2023-07-28T02:20:16;0.33;0.33;0.00
76049;PMS7003;64967;50.234;19.224;2023-07-28T02:22:43;1.00;0.00;0.00
76049;PMS7003;64967;50.234;19.224;2023-07-28T02:25:10;1.00;0.00;0.00
76049;PMS7003;64967;50.234;19.224;2023-07-28T02:27:38;1.00;0.67;0.67
76049;PMS7003;64967;50.234;19.224;2023-07-28T02:30:05;1.00;1.00;1.00
76049;PMS7003;64967;50.234;19.224;2023-07-28T02:32:33;1.00;1.00;1.00
76049;PMS7003;64967;50.234;19.224;2023-07-28T02:35:01;1.00;1.00;0.00
76049;PMS7003;64967;50.234;19.224;2023-07-28T02:37:28;0.00;0.00;0.00
76049;PMS7003;64967;50.234;19.224;2023-07-28T02:39:55;1.00;0.33;0.00
76049;PMS7003;64967;50.234;19.224;2023-07-28T02:42:22;0.00;0.00;0.00
76049;PMS7003;64967;50.234;19.224;2023-07-28T02:44:50;0.00;0.00;0.00
76049;PMS7003;64967;50.234;19.224;2023-07-28T02:47:17;0.00;0.00;0.00
76049;PMS7003;64967;50.234;19.224;2023-07-28T02:49:44;0.00;0.00;0.00
76049;PMS7003;64967;50.234;19.224;2023-07-28T02:52:12;0.00;0.00;0.00
76049;PMS7003;64967;50.234;19.224;2023-07-28T02:54:40;0.00;0.00;0.00
76049;PMS7003;64967;50.234;19.224;2023-07-28T02:57:06;0.00;0.00;0.00
76049;PMS7003;64967;50.234;19.224;2023-07-28T02:59:34;1.00;0.00;0.00
76049;PMS7003;64967;50.234;19.224;2023-07-28T03:02:01;0.00;0.00;0.00
76049;PMS7003;64967;50.234;19.224;2023-07-28T03:04:28;0.00;0.00;0.00
76049;PMS7003;64967;50.234;19.224;2023-07-28T03:06:55;1.00;0.00;0.00
76049;PMS7003;64967;50.234;19.224;2023-07-28T03:09:23;1.00;0.00;0.00
76049;PMS7003;64967;50.234;19.224;2023-07-28T03:11:50;0.00;0.00;0.00
76049;PMS7003;64967;50.234;19.224;2023-07-28T03:14:17;0.00;0.00;0.00
76049;PMS7003;64967;50.234;19.224;2023-07-28T03:16:44;1.00;1.00;0.67
76049;PMS7003;64967;50.234;19.224;2023-07-28T03:19:11;0.00;0.00;0.00
76049;PMS7003;64967;50.234;19.224;2023-07-28T03:21:38;0.00;0.00;0.00
76049;PMS7003;64967;50.234;19.224;2023-07-28T03:24:05;0.00;0.00;0.00
76049;PMS7003;64967;50.234;19.224;2023-07-28T03:26:33;0.00;0.00;0.00
76049;PMS7003;64967;50.234;19.224;2023-07-28T03:29:00;0.00;0.00;0.00
76049;PMS7003;64967;50.234;19.224;2023-07-28T03:31:27;0.00;0.00;0.00
76049;PMS7003;64967;50.234;19.224;2023-07-28T03:33:54;0.33;0.33;0.00
76049;PMS7003;64967;50.234;19.224;2023-07-28T03:36:22;0.67;0.67;0.67
76049;PMS7003;64967;50.234;19.224;2023-07-28T03:38:49;0.00;0.00;0.00
76049;PMS7003;64967;50.234;19.224;2023-07-28T03:41:17;0.00;0.00;0.00
76049;PMS7003;64967;50.234;19.224;2023-07-28T03:43:44;1.00;0.00;0.00
76049;PMS7003;64967;50.234;19.224;2023-07-28T03:46:12;0.00;0.00;0.00
76049;PMS7003;64967;50.234;19.224;2023-07-28T03:48:39;0.00;0.00;0.00
76049;PMS7003;64967;50.234;19.224;2023-07-28T03:51:06;0.00;0.00;0.00
76049;PMS7003;64967;50.234;19.224;2023-07-28T03:53:33;0.00;0.00;0.00
76049;PMS7003;64967;50.234;19.224;2023-07-28T03:56:02;0.00;0.00;0.00
76049;PMS7003;64967;50.234;19.224;2023-07-28T03:58:29;1.00;1.00;1.00
76049;PMS7003;64967;50.234;19.224;2023-07-28T04:00:57;0.00;0.00;0.00
76049;PMS7003;64967;50.234;19.224;2023-07-28T04:03:24;0.00;0.00;0.00
76049;PMS7003;64967;50.234;19.224;2023-07-28T04:05:51;0.00;0.00;0.00
76049;PMS7003;64967;50.234;19.224;2023-07-28T04:08:18;0.67;0.67;0.00
76049;PMS7003;64967;50.234;19.224;2023-07-28T04:10:45;0.00;0.00;0.00
76049;PMS7003;64967;50.234;19.224;2023-07-28T04:13:12;1.00;1.00;0.00
76049;PMS7003;64967;50.234;19.224;2023-07-28T04:15:39;1.00;0.00;0.00
76049;PMS7003;64967;50.234;19.224;2023-07-28T04:18:06;0.00;0.00;0.00
76049;PMS7003;64967;50.234;19.224;2023-07-28T04:20:33;1.00;1.00;0.00
76049;PMS7003;64967;50.234;19.224;2023-07-28T04:23:01;0.00;0.00;0.00
76049;PMS7003;64967;50.234;19.224;2023-07-28T04:25:28;1.00;1.00;1.00
76049;PMS7003;64967;50.234;19.224;2023-07-28T04:27:55;2.00;2.00;1.33
76049;PMS7003;64967;50.234;19.224;2023-07-28T04:30:23;2.00;2.00;1.67
76049;PMS7003;64967;50.234;19.224;2023-07-28T04:32:50;1.00;1.00;1.00
76049;PMS7003;64967;50.234;19.224;2023-07-28T04:35:17;1.00;1.00;1.00
76049;PMS7003;64967;50.234;19.224;2023-07-28T04:37:44;1.00;1.00;1.00
76049;PMS7003;64967;50.234;19.224;2023-07-28T04:40:11;1.00;1.00;0.67
76049;PMS7003;64967;50.234;19.224;2023-07-28T04:42:42;1.00;1.00;1.00
76049;PMS7003;64967;50.234;19.224;2023-07-28T04:45:09;1.00;1.00;1.00
76049;PMS7003;64967;50.234;19.224;2023-07-28T04:47:36;1.33;1.00;1.00
76049;PMS7003;64967;50.234;19.224;2023-07-28T04:50:04;1.00;1.00;1.00
76049;PMS7003;64967;50.234;19.224;2023-07-28T04:52:31;1.00;0.33;0.00
76049;PMS7003;64967;50.234;19.224;2023-07-28T04:54:58;1.00;1.00;1.00
76049;PMS7003;64967;50.234;19.224;2023-07-28T04:57:25;3.00;1.00;1.00
76049;PMS7003;64967;50.234;19.224;2023-07-28T04:59:52;1.00;1.00;1.00
76049;PMS7003;64967;50.234;19.224;2023-07-28T05:02:19;1.00;1.00;0.00
76049;PMS7003;64967;50.234;19.224;2023-07-28T05:04:46;2.00;1.00;0.00
76049;PMS7003;64967;50.234;19.224;2023-07-28T05:07:13;0.00;0.00;0.00
76049;PMS7003;64967;50.234;19.224;2023-07-28T05:09:40;2.00;2.00;1.67
76049;PMS7003;64967;50.234;19.224;2023-07-28T05:12:08;1.00;1.00;1.00
76049;PMS7003;64967;50.234;19.224;2023-07-28T05:14:35;1.00;1.00;1.00
76049;PMS7003;64967;50.234;19.224;2023-07-28T05:17:02;2.00;2.00;2.00
76049;PMS7003;64967;50.234;19.224;2023-07-28T05:19:29;2.00;2.00;1.00
76049;PMS7003;64967;50.234;19.224;2023-07-28T05:21:56;2.33;2.00;1.00
76049;PMS7003;64967;50.234;19.224;2023-07-28T05:24:24;1.00;0.00;0.00
76049;PMS7003;64967;50.234;19.224;2023-07-28T05:26:51;3.00;2.00;2.00
76049;PMS7003;64967;50.234;19.224;2023-07-28T05:29:18;2.00;1.33;1.00
76049;PMS7003;64967;50.234;19.224;2023-07-28T05:31:45;2.33;2.33;2.00
76049;PMS7003;64967;50.234;19.224;2023-07-28T05:34:12;3.00;0.67;0.67
76049;PMS7003;64967;50.234;19.224;2023-07-28T05:36:39;2.00;1.67;1.67
76049;PMS7003;64967;50.234;19.224;2023-07-28T05:39:07;2.00;2.00;2.00
76049;PMS7003;64967;50.234;19.224;2023-07-28T05:41:34;2.67;2.67;2.00
76049;PMS7003;64967;50.234;19.224;2023-07-28T05:44:01;1.67;1.67;1.33
76049;PMS7003;64967;50.234;19.224;2023-07-28T05:46:29;2.00;2.00;1.00
76049;PMS7003;64967;50.234;19.224;2023-07-28T05:48:56;3.00;2.00;2.00
76049;PMS7003;64967;50.234;19.224;2023-07-28T05:51:24;4.00;2.00;2.00
76049;PMS7003;64967;50.234;19.224;2023-07-28T05:53:51;3.00;3.00;3.00
76049;PMS7003;64967;50.234;19.224;2023-07-28T05:56:18;4.33;4.00;4.00
76049;PMS7003;64967;50.234;19.224;2023-07-28T05:58:48;2.33;2.33;2.00
76049;PMS7003;64967;50.234;19.224;2023-07-28T06:01:16;3.00;2.33;2.00
76049;PMS7003;64967;50.234;19.224;2023-07-28T06:03:43;3.00;2.67;2.00
76049;PMS7003;64967;50.234;19.224;2023-07-28T06:06:11;3.00;3.00;2.00
76049;PMS7003;64967;50.234;19.224;2023-07-28T06:08:39;4.67;3.33;2.33
76049;PMS7003;64967;50.234;19.224;2023-07-28T06:11:06;3.00;3.00;3.00
76049;PMS7003;64967;50.234;19.224;2023-07-28T06:13:33;3.00;2.00;2.00
76049;PMS7003;64967;50.234;19.224;2023-07-28T06:16:01;4.00;3.33;2.67
76049;PMS7003;64967;50.234;19.224;2023-07-28T06:18:28;3.33;3.33;2.33
76049;PMS7003;64967;50.234;19.224;2023-07-28T06:20:55;3.33;3.33;2.67
76049;PMS7003;64967;50.234;19.224;2023-07-28T06:23:22;4.00;3.33;2.67
76049;PMS7003;64967;50.234;19.224;2023-07-28T06:25:50;3.33;3.00;2.67
76049;PMS7003;64967;50.234;19.224;2023-07-28T06:28:17;3.00;3.00;2.00
76049;PMS7003;64967;50.234;19.224;2023-07-28T06:30:45;1.67;1.67;1.00
76049;PMS7003;64967;50.234;19.224;2023-07-28T06:33:12;2.00;2.00;2.00
76049;PMS7003;64967;50.234;19.224;2023-07-28T06:35:39;4.00;4.00;2.67
76049;PMS7003;64967;50.234;19.224;2023-07-28T06:38:06;4.00;3.00;2.00
76049;PMS7003;64967;50.234;19.224;2023-07-28T06:40:33;4.33;3.00;3.00
76049;PMS7003;64967;50.234;19.224;2023-07-28T06:43:01;3.00;3.00;3.00
76049;PMS7003;64967;50.234;19.224;2023-07-28T06:45:28;3.67;3.67;3.00
76049;PMS7003;64967;50.234;19.224;2023-07-28T06:47:55;3.00;3.00;2.33
76049;PMS7003;64967;50.234;19.224;2023-07-28T06:50:22;5.00;4.00;3.00
76049;PMS7003;64967;50.234;19.224;2023-07-28T06:52:50;2.00;2.00;2.00
76049;PMS7003;64967;50.234;19.224;2023-07-28T06:55:17;5.00;3.67;2.33
76049;PMS7003;64967;50.234;19.224;2023-07-28T06:57:45;2.33;2.33;2.00
76049;PMS7003;64967;50.234;19.224;2023-07-28T07:00:12;2.00;2.00;1.67
76049;PMS7003;64967;50.234;19.224;2023-07-28T07:02:40;3.00;2.00;2.00
76049;PMS7003;64967;50.234;19.224;2023-07-28T07:05:07;2.00;2.00;1.67
76049;PMS7003;64967;50.234;19.224;2023-07-28T07:07:34;2.00;2.00;2.00
76049;PMS7003;64967;50.234;19.224;2023-07-28T07:10:01;2.00;2.00;1.33
76049;PMS7003;64967;50.234;19.224;2023-07-28T07:12:29;4.00;3.00;3.00
76049;PMS7003;64967;50.234;19.224;2023-07-28T07:14:57;3.00;2.00;2.00
76049;PMS7003;64967;50.234;19.224;2023-07-28T07:17:24;4.00;4.00;3.00
76049;PMS7003;64967;50.234;19.224;2023-07-28T07:19:51;2.67;2.67;2.00
76049;PMS7003;64967;50.234;19.224;2023-07-28T07:22:18;2.00;2.00;2.00
76049;PMS7003;64967;50.234;19.224;2023-07-28T07:24:45;5.00;4.00;3.00
76049;PMS7003;64967;50.234;19.224;2023-07-28T07:27:12;2.00;2.00;2.00
76049;PMS7003;64967;50.234;19.224;2023-07-28T07:29:39;3.33;2.00;2.00
76049;PMS7003;64967;50.234;19.224;2023-07-28T07:32:06;4.00;2.00;2.00
76049;PMS7003;64967;50.234;19.224;2023-07-28T07:34:34;2.67;2.00;1.00
76049;PMS7003;64967;50.234;19.224;2023-07-28T07:37:03;3.00;2.67;2.00
76049;PMS7003;64967;50.234;19.224;2023-07-28T07:39:31;1.00;1.00;1.00
76049;PMS7003;64967;50.234;19.224;2023-07-28T07:41:58;4.33;3.67;2.33
76049;PMS7003;64967;50.234;19.224;2023-07-28T07:44:26;2.00;2.00;2.00
76049;PMS7003;64967;50.234;19.224;2023-07-28T07:46:53;3.00;2.00;2.00
76049;PMS7003;64967;50.234;19.224;2023-07-28T07:49:21;3.00;3.00;3.00
76049;PMS7003;64967;50.234;19.224;2023-07-28T07:51:50;3.00;2.00;1.00
76049;PMS7003;64967;50.234;19.224;2023-07-28T07:54:17;1.33;1.33;1.00
76049;PMS7003;64967;50.234;19.224;2023-07-28T07:56:45;1.00;1.00;1.00
76049;PMS7003;64967;50.234;19.224;2023-07-28T07:59:13;1.00;1.00;1.00
76049;PMS7003;64967;50.234;19.224;2023-07-28T08:01:40;1.00;1.00;1.00
76049;PMS7003;64967;50.234;19.224;2023-07-28T08:04:07;2.00;1.00;1.00
76049;PMS7003;64967;50.234;19.224;2023-07-28T08:06:35;1.00;1.00;1.00
76049;PMS7003;64967;50.234;19.224;2023-07-28T08:09:02;2.67;2.33;2.00
76049;PMS7003;64967;50.234;19.224;2023-07-28T08:11:29;2.33;2.33;2.00
76049;PMS7003;64967;50.234;19.224;2023-07-28T08:13:56;2.33;2.33;2.00
76049;PMS7003;64967;50.234;19.224;2023-07-28T08:16:23;2.00;1.00;1.00
76049;PMS7003;64967;50.234;19.224;2023-07-28T08:18:50;3.67;3.00;2.67
76049;PMS7003;64967;50.234;19.224;2023-07-28T08:21:17;2.00;2.00;2.00
76049;PMS7003;64967;50.234;19.224;2023-07-28T08:23:45;3.00;2.00;2.00
76049;PMS7003;64967;50.234;19.224;2023-07-28T08:26:12;3.33;1.00;1.00
76049;PMS7003;64967;50.234;19.224;2023-07-28T08:28:39;2.00;2.00;1.67
76049;PMS7003;64967;50.234;19.224;2023-07-28T08:31:06;2.67;2.67;2.00
76049;PMS7003;64967;50.234;19.224;2023-07-28T08:33:33;5.00;4.00;4.00
76049;PMS7003;64967;50.234;19.224;2023-07-28T08:36:00;2.00;2.00;2.00
76049;PMS7003;64967;50.234;19.224;2023-07-28T08:38:30;3.00;2.00;2.00
76049;PMS7003;64967;50.234;19.224;2023-07-28T08:40:57;4.00;3.00;3.00
76049;PMS7003;64967;50.234;19.224;2023-07-28T08:43:25;5.33;3.33;3.00
76049;PMS7003;64967;50.234;19.224;2023-07-28T08:45:52;3.00;3.00;3.00
76049;PMS7003;64967;50.234;19.224;2023-07-28T08:48:21;4.00;3.00;2.00
76049;PMS7003;64967;50.234;19.224;2023-07-28T08:50:49;4.00;4.00;3.33
76049;PMS7003;64967;50.234;19.224;2023-07-28T08:53:16;4.00;3.00;3.00
76049;PMS7003;64967;50.234;19.224;2023-07-28T08:55:43;4.67;4.00;3.00
76049;PMS7003;64967;50.234;19.224;2023-07-28T08:58:16;2.00;2.00;1.00
76049;PMS7003;64967;50.234;19.224;2023-07-28T09:00:48;2.00;2.00;2.00
76049;PMS7003;64967;50.234;19.224;2023-07-28T09:03:17;3.00;3.00;2.67
76049;PMS7003;64967;50.234;19.224;2023-07-28T09:05:45;4.00;4.00;2.33
76049;PMS7003;64967;50.234;19.224;2023-07-28T09:08:13;3.00;3.00;3.00
76049;PMS7003;64967;50.234;19.224;2023-07-28T09:10:47;4.33;4.00;3.00
76049;PMS7003;64967;50.234;19.224;2023-07-28T09:13:16;4.00;4.00;3.33
76049;PMS7003;64967;50.234;19.224;2023-07-28T09:15:44;4.00;4.00;3.00
76049;PMS7003;64967;50.234;19.224;2023-07-28T09:18:12;4.00;4.00;3.00
76049;PMS7003;64967;50.234;19.224;2023-07-28T09:20:42;4.00;3.00;2.00
76049;PMS7003;64967;50.234;19.224;2023-07-28T09:23:10;4.00;3.67;3.00
76049;PMS7003;64967;50.234;19.224;2023-07-28T09:25:39;3.00;3.00;3.00
76049;PMS7003;64967;50.234;19.224;2023-07-28T09:28:07;4.33;3.00;3.00
76049;PMS7003;64967;50.234;19.224;2023-07-28T09:30:44;2.00;2.00;2.00
76049;PMS7003;64967;50.234;19.224;2023-07-28T09:33:30;2.67;2.67;2.33
76049;PMS7003;64967;50.234;19.224;2023-07-28T09:36:06;3.00;3.00;2.33
76049;PMS7003;64967;50.234;19.224;2023-07-28T09:38:43;2.00;2.00;2.00
76049;PMS7003;64967;50.234;19.224;2023-07-28T09:41:10;3.33;2.33;2.00
76049;PMS7003;64967;50.234;19.224;2023-07-28T09:43:38;3.00;3.00;2.33
76049;PMS7003;64967;50.234;19.224;2023-07-28T09:46:07;3.00;3.00;2.33
76049;PMS7003;64967;50.234;19.224;2023-07-28T09:48:37;4.00;2.67;2.33
76049;PMS7003;64967;50.234;19.224;2023-07-28T09:51:11;3.00;3.00;2.00
76049;PMS7003;64967;50.234;19.224;2023-07-28T09:53:49;3.00;3.00;3.00
76049;PMS7003;64967;50.234;19.224;2023-07-28T09:56:22;4.00;4.00;3.67
76049;PMS7003;64967;50.234;19.224;2023-07-28T09:58:54;4.00;3.67;3.00
76049;PMS7003;64967;50.234;19.224;2023-07-28T10:01:24;5.00;5.00;3.33
76049;PMS7003;64967;50.234;19.224;2023-07-28T10:03:51;4.67;4.67;4.33
76049;PMS7003;64967;50.234;19.224;2023-07-28T10:06:18;6.00;5.00;4.00
76049;PMS7003;64967;50.234;19.224;2023-07-28T10:08:49;5.00;5.00;4.00
76049;PMS7003;64967;50.234;19.224;2023-07-28T10:11:16;2.67;2.33;2.00
76049;PMS7003;64967;50.234;19.224;2023-07-28T10:13:45;4.33;4.00;3.33
76049;PMS7003;64967;50.234;19.224;2023-07-28T10:16:13;4.67;4.67;4.00
76049;PMS7003;64967;50.234;19.224;2023-07-28T10:19:02;4.33;4.33;4.00
76049;PMS7003;64967;50.234;19.224;2023-07-28T10:21:30;4.33;4.33;4.00
76049;PMS7003;64967;50.234;19.224;2023-07-28T10:23:58;4.00;3.67;3.00
76049;PMS7003;64967;50.234;19.224;2023-07-28T10:26:35;3.00;3.00;3.00
76049;PMS7003;64967;50.234;19.224;2023-07-28T10:29:08;4.00;4.00;4.00
76049;PMS7003;64967;50.234;19.224;2023-07-28T10:31:49;5.00;4.00;3.00
76049;PMS7003;64967;50.234;19.224;2023-07-28T10:34:18;4.00;4.00;3.00
76049;PMS7003;64967;50.234;19.224;2023-07-28T10:36:45;4.33;3.67;3.00
76049;PMS7003;64967;50.234;19.224;2023-07-28T10:39:13;4.33;4.33;3.33
76049;PMS7003;64967;50.234;19.224;2023-07-28T10:42:03;4.00;4.00;3.33
76049;PMS7003;64967;50.234;19.224;2023-07-28T10:44:30;3.00;3.00;3.00
76049;PMS7003;64967;50.234;19.224;2023-07-28T10:46:58;2.00;1.67;1.00
76049;PMS7003;64967;50.234;19.224;2023-07-28T10:49:26;4.00;4.00;3.33
76049;PMS7003;64967;50.234;19.224;2023-07-28T10:51:53;3.00;3.00;2.33
76049;PMS7003;64967;50.234;19.224;2023-07-28T10:54:21;5.00;4.33;3.00
76049;PMS7003;64967;50.234;19.224;2023-07-28T10:56:48;4.00;4.00;4.00
76049;PMS7003;64967;50.234;19.224;2023-07-28T10:59:15;3.00;3.00;3.00
76049;PMS7003;64967;50.234;19.224;2023-07-28T11:01:43;5.67;4.33;4.33
76049;PMS7003;64967;50.234;19.224;2023-07-28T11:06:40;3.00;3.00;3.00
76049;PMS7003;64967;50.234;19.224;2023-07-28T11:09:09;5.00;4.00;3.33
76049;PMS7003;64967;50.234;19.224;2023-07-28T11:11:37;2.67;2.67;2.67
76049;PMS7003;64967;50.234;19.224;2023-07-28T11:14:07;5.00;4.00;3.00
76049;PMS7003;64967;50.234;19.224;2023-07-28T11:16:36;6.00;5.33;4.33
76049;PMS7003;64967;50.234;19.224;2023-07-28T11:19:09;4.67;4.67;4.00
76049;PMS7003;64967;50.234;19.224;2023-07-28T11:21:38;4.33;4.00;3.33
76049;PMS7003;64967;50.234;19.224;2023-07-28T11:24:07;3.33;2.67;2.67
76049;PMS7003;64967;50.234;19.224;2023-07-28T11:26:35;4.33;3.67;3.33
76049;PMS7003;64967;50.234;19.224;2023-07-28T11:29:04;2.67;2.67;2.67
76049;PMS7003;64967;50.234;19.224;2023-07-28T11:31:32;4.00;4.00;3.33
76049;PMS7003;64967;50.234;19.224;2023-07-28T11:34:00;3.67;3.67;3.00
76049;PMS7003;64967;50.234;19.224;2023-07-28T11:36:28;4.00;4.00;4.00
76049;PMS7003;64967;50.234;19.224;2023-07-28T11:38:58;4.33;4.33;3.33
76049;PMS7003;64967;50.234;19.224;2023-07-28T11:41:26;5.33;5.00;4.67
76049;PMS7003;64967;50.234;19.224;2023-07-28T11:43:54;5.00;5.00;4.67
76049;PMS7003;64967;50.234;19.224;2023-07-28T11:46:38;6.00;5.00;4.00
76049;PMS7003;64967;50.234;19.224;2023-07-28T11:49:19;3.00;3.00;3.00
76049;PMS7003;64967;50.234;19.224;2023-07-28T11:51:51;5.00;5.00;4.00
76049;PMS7003;64967;50.234;19.224;2023-07-28T11:54:21;4.00;3.00;3.00
76049;PMS7003;64967;50.234;19.224;2023-07-28T11:56:49;2.33;2.33;2.00
76049;PMS7003;64967;50.234;19.224;2023-07-28T11:59:18;2.00;1.00;1.00
76049;PMS7003;64967;50.234;19.224;2023-07-28T12:01:54;3.00;3.00;3.00
76049;PMS7003;64967;50.234;19.224;2023-07-28T12:04:31;4.00;4.00;3.33
76049;PMS7003;64967;50.234;19.224;2023-07-28T12:12:12;4.00;3.00;2.67
76049;PMS7003;64967;50.234;19.224;2023-07-28T12:14:50;2.33;2.33;2.00
76049;PMS7003;64967;50.234;19.224;2023-07-28T12:17:38;3.00;3.00;2.00
76049;PMS7003;64967;50.234;19.224;2023-07-28T12:20:09;2.00;2.00;2.00
76049;PMS7003;64967;50.234;19.224;2023-07-28T12:22:43;2.33;2.33;2.00
76049;PMS7003;64967;50.234;19.224;2023-07-28T12:25:11;2.67;2.67;2.00
76049;PMS7003;64967;50.234;19.224;2023-07-28T12:27:38;3.00;3.00;3.00
76049;PMS7003;64967;50.234;19.224;2023-07-28T12:30:06;4.00;3.00;3.00
76049;PMS7003;64967;50.234;19.224;2023-07-28T12:32:38;3.00;3.00;3.00
76049;PMS7003;64967;50.234;19.224;2023-07-28T12:35:06;3.00;2.33;2.00
76049;PMS7003;64967;50.234;19.224;2023-07-28T12:37:38;3.00;3.00;2.00
76049;PMS7003;64967;50.234;19.224;2023-07-28T12:40:08;2.33;2.33;2.00
76049;PMS7003;64967;50.234;19.224;2023-07-28T12:42:57;3.00;3.00;2.00
76049;PMS7003;64967;50.234;19.224;2023-07-28T12:45:28;1.00;1.00;1.00
76049;PMS7003;64967;50.234;19.224;2023-07-28T12:48:15;3.00;2.00;2.00
76049;PMS7003;64967;50.234;19.224;2023-07-28T12:50:45;3.00;3.00;2.67
76049;PMS7003;64967;50.234;19.224;2023-07-28T12:53:13;3.00;3.00;3.00
76049;PMS7003;64967;50.234;19.224;2023-07-28T12:55:48;3.00;2.00;2.00
76049;PMS7003;64967;50.234;19.224;2023-07-28T12:58:18;1.33;1.33;1.00
76049;PMS7003;64967;50.234;19.224;2023-07-28T13:00:48;2.00;1.00;1.00
76049;PMS7003;64967;50.234;19.224;2023-07-28T13:03:18;2.00;2.00;2.00
76049;PMS7003;64967;50.234;19.224;2023-07-28T13:05:46;2.00;2.00;2.00
76049;PMS7003;64967;50.234;19.224;2023-07-28T13:08:15;2.00;2.00;2.00
76049;PMS7003;64967;50.234;19.224;2023-07-28T13:10:43;2.00;2.00;1.67
76049;PMS7003;64967;50.234;19.224;2023-07-28T13:13:13;2.33;2.33;2.00
76049;PMS7003;64967;50.234;19.224;2023-07-28T13:15:40;2.33;2.33;2.00
76049;PMS7003;64967;50.234;19.224;2023-07-28T13:18:08;3.00;2.00;2.00
76049;PMS7003;64967;50.234;19.224;2023-07-28T13:20:35;3.00;3.00;2.00
76049;PMS7003;64967;50.234;19.224;2023-07-28T13:23:03;1.00;1.00;1.00
76049;PMS7003;64967;50.234;19.224;2023-07-28T13:25:30;4.00;2.67;2.67
76049;PMS7003;64967;50.234;19.224;2023-07-28T13:27:57;3.00;2.00;2.00
76049;PMS7003;64967;50.234;19.224;2023-07-28T13:30:24;2.00;2.00;2.00
76049;PMS7003;64967;50.234;19.224;2023-07-28T13:32:54;2.00;2.00;1.00
76049;PMS7003;64967;50.234;19.224;2023-07-28T13:35:22;2.00;2.00;1.00
76049;PMS7003;64967;50.234;19.224;2023-07-28T13:37:49;0.33;0.33;0.00
76049;PMS7003;64967;50.234;19.224;2023-07-28T13:40:16;2.33;2.00;1.33
76049;PMS7003;64967;50.234;19.224;2023-07-28T13:42:43;2.00;2.00;1.67
76049;PMS7003;64967;50.234;19.224;2023-07-28T13:45:10;3.00;2.00;2.00
76049;PMS7003;64967;50.234;19.224;2023-07-28T13:47:37;2.67;2.67;2.00
76049;PMS7003;64967;50.234;19.224;2023-07-28T13:50:05;1.00;1.00;1.00
76049;PMS7003;64967;50.234;19.224;2023-07-28T13:52:32;1.00;1.00;1.00
76049;PMS7003;64967;50.234;19.224;2023-07-28T13:54:59;1.67;1.33;1.00
76049;PMS7003;64967;50.234;19.224;2023-07-28T13:57:29;3.33;3.00;2.33
76049;PMS7003;64967;50.234;19.224;2023-07-28T13:59:56;2.00;2.00;1.67
76049;PMS7003;64967;50.234;19.224;2023-07-28T14:02:23;2.00;2.00;2.00
76049;PMS7003;64967;50.234;19.224;2023-07-28T14:04:51;3.00;2.67;2.00
76049;PMS7003;64967;50.234;19.224;2023-07-28T14:07:18;2.00;2.00;2.00
76049;PMS7003;64967;50.234;19.224;2023-07-28T14:09:45;2.00;2.00;1.67
76049;PMS7003;64967;50.234;19.224;2023-07-28T14:12:12;1.00;1.00;1.00
76049;PMS7003;64967;50.234;19.224;2023-07-28T14:14:39;2.00;1.67;1.00
76049;PMS7003;64967;50.234;19.224;2023-07-28T14:17:06;2.00;2.00;1.67
76049;PMS7003;64967;50.234;19.224;2023-07-28T14:19:33;1.00;1.00;1.00
76049;PMS7003;64967;50.234;19.224;2023-07-28T14:22:01;1.67;1.67;1.00
76049;PMS7003;64967;50.234;19.224;2023-07-28T14:24:28;1.00;1.00;1.00
76049;PMS7003;64967;50.234;19.224;2023-07-28T14:26:55;1.33;1.33;1.33
76049;PMS7003;64967;50.234;19.224;2023-07-28T14:29:24;1.00;1.00;1.00
76049;PMS7003;64967;50.234;19.224;2023-07-28T14:31:51;1.00;1.00;1.00